Copenhagen Roskilde Airport

EKRK · 西兰大区, 丹麦

罗盘
风向 的 风向 080° Copenhagen Roskilde Airport 11/29
风: 6 kt, 2 beaufort

5 kt

4 kt
改变
0 ft 1.000 2.000 3.000 4.000 5.000
Cloud Cloud Cloud Cloud
SCT 3.000
METAR EKRK 032250Z AUTO 08006KT 8000 SCT030/// 04/02 Q1011

METAR Copenhagen Roskilde Airport - EKRK/RKE

Copenhagen Roskilde Airport是,丹麦中的中型机场。 该机场位于纬度55,58538和经度12,12898。 该机场有2条跑道: 11/29 和 3/21. 本场的ICAO机场代码为EKRK。 该机场的IATA代码为RKE。 机场在Kobenhavn FIR中。

该航空气象观测是针对Copenhagen Roskilde Airport在2024年3月3日 23:50, 当地时间进行的。

机场观察

风向为080°,速度为6 kt。

可见度为8 km。

有疏云,零星散落的云朵在3.000 ft的高度。 没有观察到天花板。

温度为4 °C,阵风为-1 °C。 露点为2 °C,相对湿度为87%。 海平面上的气压为1011 hPa (QNH)。

白天

今天,太阳从06:55升起,在17:50降落。 这适用于Copenhagen Roskilde Airport,世界夏令时可能有所不同。 当地时间与世界标准时间之间的时差为+1 小时。 当前,没有夏令时有效。

公司介绍

在这个机场,你可以找到飞行学校。 这个机场上的公司有Ikaros Fly ApS, Flight 4000 A/S, Copenhagen AirTaxi, Center Air Pilot Academy 和 Phoenix flight Academy。

体会

到Vliegles.nl去找飞行课程,跳伞和其他飞行体验。 浏览页面,了解Copenhagen Roskilde Airport附近所有可用的活动。 你也可以使用搜索功能来寻找你所在地附近的特定飞行课程、跳伞或其他飞行体验。

跑道

Id 标题 侧风 逆风 侧风 %
11/29 116°-296° 4 kt 5 kt 59 %
3/21 030°-210° 5 kt 4 kt 77 %

逆风成分最大的方向会被突出显示,并用于横风计算。 这并不一定意味着这个方向在使用。

乌云

3.000 ft SCT 疏云,零星散落的云朵

温度 & 天气

温度 4 °C
露点 2 °C
相对湿度 87%
风寒 -1 °C
Kp-index 4 (0-9)

白天

日出
06:55 (6:49)
中午
12:23
日落
17:50

小工具

你想在你的网站上有一个关于Copenhagen Roskilde Airport的当前航空天气(METAR)的小部件吗?

显示HTML代码
?>